Terminal Aerodrome Forecast
Issued by NWS

Current Version | Previous Version | Graphics & Text | Print | Product List | Glossary On
Versions: 1 2 3 4 5 6 7 8 9 10 11 12 13 14 15 16 17 18 19 20 21
122
FTUS41 KRLX 240250 AAA
TAFCKB
TAF AMD
KCKB 240250Z 2403/2424 VRB03KT P6SM SKC
     FM240900 00000KT 4SM BR FEW200
     FM241200 18003KT P6SM SCT200
     FM241700 20004KT P6SM SCT150=

USA.gov is the U.S. government's official web portal to all federal, state and local government web resources and services.